Time;durP1;ratioP1;P1;durP2;ratioP2;P2;SDS_P1;SDS_P2;PMS_P1;PMS_P2;Temp;Humidity;BMP_temperature;BMP_pressure;BME280_temperature;BME280_humidity;BME280_pressure;Samples;Min_cycle;Max_cycle;Signal;HPM_P1;HPM_P2
2020/12/09 00:00:43;;;;;;;31.83;23.50;;;;;;;;;;5118097;28;20373;-56
2020/12/09 00:03:08;;;;;;;32.57;22.53;;;;;;;;;;5108946;28;20058;-57
2020/12/09 00:05:43;;;;;;;37.53;22.37;;;;;;;;;;5117245;28;20043;-55
2020/12/09 00:08:27;;;;;;;29.90;24.53;;;;;;;;;;5117393;28;20054;-55
2020/12/09 00:14:09;;;;;;;29.47;22.43;;;;;;;;;;5116949;28;20030;-56
2020/12/09 00:17:16;;;;;;;36.07;23.93;;;;;;;;;;5097613;28;20036;-56
2020/12/09 00:23:16;;;;;;;35.47;22.27;;;;;;;;;;5104669;28;20461;-55
2020/12/09 00:25:48;;;;;;;33.10;23.77;;;;;;;;;;5120504;28;20393;-56
2020/12/09 00:28:35;;;;;;;42.77;26.37;;;;;;;;;;5120660;28;20536;-53
2020/12/09 00:31:08;;;;;;;43.30;25.83;;;;;;;;;;5121275;28;20030;-55
2020/12/09 00:33:34;;;;;;;36.70;22.97;;;;;;;;;;5120844;28;20066;-56
2020/12/09 00:42:31;;;;;;;34.77;23.40;;;;;;;;;;5107165;28;20385;-53
2020/12/09 00:47:58;;;;;;;;;;;;;;;;;;5038588;28;20040;-56
2020/12/09 00:51:12;;;;;;;;;;;;;;;;;;;;;
2020/12/09 00:54:09;;;;;;;31.00;22.77;;;;;;;;;;5034810;28;20105;-56
2020/12/09 00:57:13;;;;;;;39.57;23.40;;;;;;;;;;5033026;28;20037;-56
2020/12/09 00:59:52;;;;;;;;;;;;;;;;;;;;;
2020/12/09 01:02:49;;;;;;;33.87;23.73;;;;;;;;;;5108301;28;20520;-55
2020/12/09 01:11:27;;;;;;;27.93;21.07;;;;;;;;;;5057735;28;19959;-55
2020/12/09 01:13:52;;;;;;;34.97;24.80;;;;;;;;;;5057965;28;20056;-55
2020/12/09 01:16:35;;;;;;;31.77;23.00;;;;;;;;;;5114731;28;20043;-54
2020/12/09 01:19:34;;;;;;;;;;;;;;;;;;;;;
2020/12/09 01:22:10;;;;;;;33.90;24.07;;;;;;;;;;5084295;28;20122;-53
2020/12/09 01:25:04;;;;;;;38.17;23.03;;;;;;;;;;5102150;28;20040;-54
2020/12/09 01:28:05;;;;;;;38.63;28.00;;;;;;;;;;5120721;28;20079;-56
2020/12/09 01:31:07;;;;;;;;;;;;;;;;;;;;;
2020/12/09 01:33:46;;;;;;;30.17;21.03;;;;;;;;;;5114281;28;20123;-53
2020/12/09 01:36:51;;;;;;;33.50;23.90;;;;;;;;;;5120662;28;20027;-54
2020/12/09 01:39:51;;;;;;;;;;;;;;;;;;;;;
2020/12/09 01:43:05;;;;;;;31.20;21.27;;;;;;;;;;5029040;28;20120;-56
2020/12/09 01:48:19;;;;;;;40.23;25.13;;;;;;;;;;5115666;28;20038;-56
2020/12/09 01:51:02;;;;;;;45.90;26.35;;;;;;;;;;5120411;28;20030;-56
2020/12/09 01:53:56;;;;;;;44.20;26.60;;;;;;;;;;5106594;28;20059;-56
2020/12/09 01:56:38;;;;;;;37.93;27.83;;;;;;;;;;5119717;28;20016;-53
2020/12/09 01:59:16;;;;;;;37.67;24.77;;;;;;;;;;5120074;28;20038;-57
2020/12/09 02:01:54;;;;;;;38.50;26.53;;;;;;;;;;5100980;28;20488;-57
2020/12/09 02:07:42;;;;;;;36.90;26.57;;;;;;;;;;5104731;28;20063;-56
2020/12/09 02:10:37;;;;;;;47.03;26.90;;;;;;;;;;5112549;28;20035;-56
2020/12/09 02:28:40;;;;;;;38.27;26.90;;;;;;;;;;4996662;28;20031;-55
2020/12/09 02:34:09;;;;;;;39.63;28.30;;;;;;;;;;5087600;28;20043;-56
2020/12/09 02:37:09;;;;;;;41.60;27.85;;;;;;;;;;5114134;28;20093;-56
2020/12/09 02:43:30;;;;;;;;;;;;;;;;;;;;;
2020/12/09 02:46:17;;;;;;;30.23;22.83;;;;;;;;;;5118602;28;20103;-55
2020/12/09 02:55:18;;;;;;;47.50;28.43;;;;;;;;;;5119538;28;20045;-56
2020/12/09 03:01:19;;;;;;;37.80;26.03;;;;;;;;;;5110723;28;20035;-53
2020/12/09 03:04:01;;;;;;;37.13;27.63;;;;;;;;;;5113278;28;20075;-56
2020/12/09 03:06:50;;;;;;;39.47;27.93;;;;;;;;;;5099987;28;20122;-55
2020/12/09 03:09:53;;;;;;;35.67;24.40;;;;;;;;;;5118583;28;20038;-53
2020/12/09 03:12:47;;;;;;;;;;;;;;;;;;;;;
2020/12/09 03:15:25;;;;;;;38.57;26.00;;;;;;;;;;5117628;28;20492;-54
2020/12/09 03:18:19;;;;;;;32.13;25.87;;;;;;;;;;5103659;28;20568;-56
2020/12/09 03:21:06;;;;;;;34.90;26.87;;;;;;;;;;5120145;28;20040;-56
2020/12/09 03:23:42;;;;;;;37.87;29.23;;;;;;;;;;5066573;28;20066;-56
2020/12/09 03:29:12;;;;;;;49.80;28.77;;;;;;;;;;5108779;28;20032;-54
2020/12/09 03:34:58;;;;;;;40.17;27.10;;;;;;;;;;5116088;28;20032;-55
2020/12/09 03:37:50;;;;;;;38.47;27.42;;;;;;;;;;5118852;28;20028;-55
2020/12/09 03:40:21;;;;;;;37.07;26.93;;;;;;;;;;5069802;28;20446;-56
2020/12/09 03:49:19;;;;;;;41.67;25.93;;;;;;;;;;4996865;28;20030;-56
2020/12/09 03:52:05;;;;;;;33.90;24.87;;;;;;;;;;4996814;28;20026;-56
2020/12/09 03:54:49;;;;;;;39.27;25.47;;;;;;;;;;4997143;28;20038;-55
2020/12/09 03:57:24;;;;;;;37.10;27.13;;;;;;;;;;5000227;28;20030;-56
2020/12/09 04:02:56;;;;;;;39.53;28.23;;;;;;;;;;5062710;28;20139;-54
2020/12/09 04:05:41;;;;;;;41.87;28.20;;;;;;;;;;5121270;28;20076;-54
2020/12/09 04:08:21;;;;;;;33.60;24.73;;;;;;;;;;5122257;28;20512;-56
2020/12/09 04:11:22;;;;;;;40.15;28.02;;;;;;;;;;5087615;28;20060;-55
2020/12/09 04:14:30;;;;;;;37.67;26.37;;;;;;;;;;5122435;28;20024;-55
2020/12/09 04:17:20;;;;;;;36.03;26.40;;;;;;;;;;5034001;28;20041;-56
2020/12/09 04:20:04;;;;;;;42.53;28.43;;;;;;;;;;5037512;28;20045;-55
2020/12/09 04:22:39;;;;;;;39.00;26.97;;;;;;;;;;5085441;28;20118;-56
2020/12/09 04:25:21;;;;;;;;;;;;;;;;;;;;;
2020/12/09 04:27:56;;;;;;;38.57;26.90;;;;;;;;;;5121801;28;20459;-56
2020/12/09 04:30:43;;;;;;;39.00;28.87;;;;;;;;;;5121432;28;20461;-55
2020/12/09 04:33:24;;;;;;;;;;;;;;;;;;;;;
2020/12/09 04:35:59;;;;;;;34.93;26.63;;;;;;;;;;5102386;28;20099;-55
2020/12/09 04:38:33;;;;;;;36.90;27.00;;;;;;;;;;5118064;28;20019;-53
2020/12/09 04:41:10;;;;;;;37.27;27.77;;;;;;;;;;5101511;28;20051;-56
2020/12/09 04:43:45;;;;;;;36.13;26.27;;;;;;;;;;5119966;28;20380;-56
2020/12/09 04:49:03;;;;;;;33.92;23.42;;;;;;;;;;5117589;28;20034;-56
2020/12/09 04:52:10;;;;;;;40.27;26.60;;;;;;;;;;5115284;28;20035;-55
2020/12/09 04:54:58;;;;;;;34.53;23.43;;;;;;;;;;5034874;28;20479;-55
2020/12/09 04:58:02;;;;;;;32.67;24.63;;;;;;;;;;5033744;28;20135;-56
2020/12/09 05:03:50;;;;;;;36.77;25.63;;;;;;;;;;4984298;28;20048;-56
2020/12/09 05:06:33;;;;;;;;;;;;;;;;;;;;;
2020/12/09 05:09:22;;;;;;;31.63;22.87;;;;;;;;;;5093024;28;20037;-55
2020/12/09 05:12:27;;;;;;;34.57;23.60;;;;;;;;;;5095631;28;20036;-56
2020/12/09 05:15:22;;;;;;;;;;;;;;;;;;;;;
2020/12/09 05:19:17;;;;;;;;;;;;;;;;;;;;;
2020/12/09 05:21:16;;;;;;;31.87;24.00;;;;;;;;;;5076341;28;20028;-56
2020/12/09 05:23:49;;;;;;;36.85;25.80;;;;;;;;;;5067933;28;20039;-54
2020/12/09 05:26:37;;;;;;;41.20;25.57;;;;;;;;;;5094489;28;20111;-53
2020/12/09 05:29:24;;;;;;;34.70;23.50;;;;;;;;;;5096551;28;20035;-55
2020/12/09 05:32:11;;;;;;;34.17;24.20;;;;;;;;;;5061923;28;20028;-56
2020/12/09 05:37:43;;;;;;;34.40;24.17;;;;;;;;;;5096817;28;20035;-56
2020/12/09 05:40:31;;;;;;;35.93;23.80;;;;;;;;;;5075160;28;20037;-55
2020/12/09 05:46:25;;;;;;;30.60;22.47;;;;;;;;;;5056962;28;20032;-57
2020/12/09 05:49:01;;;;;;;39.83;24.67;;;;;;;;;;5096482;28;20422;-55
2020/12/09 05:51:34;;;;;;;37.43;24.47;;;;;;;;;;5095569;28;20369;-55
2020/12/09 05:54:26;;;;;;;34.83;24.13;;;;;;;;;;5095351;28;20031;-57
2020/12/09 05:57:05;;;;;;;36.97;24.13;;;;;;;;;;5095678;28;20043;-55
2020/12/09 05:59:53;;;;;;;24.60;20.37;;;;;;;;;;5077457;28;20041;-55
2020/12/09 06:05:28;;;;;;;33.87;23.57;;;;;;;;;;5091406;28;20527;-55
2020/12/09 06:08:20;;;;;;;30.40;21.33;;;;;;;;;;5116646;28;20059;-56
2020/12/09 06:11:03;;;;;;;31.23;22.33;;;;;;;;;;5070684;28;20039;-56
2020/12/09 06:13:47;;;;;;;25.60;20.83;;;;;;;;;;5115337;28;20039;-57
2020/12/09 06:16:29;;;;;;;24.33;17.53;;;;;;;;;;5115646;28;20034;-55
2020/12/09 06:19:04;;;;;;;31.57;22.63;;;;;;;;;;5113929;28;20036;-57
2020/12/09 06:21:38;;;;;;;26.27;19.97;;;;;;;;;;5115437;28;20503;-57
2020/12/09 06:27:39;;;;;;;28.97;20.27;;;;;;;;;;5076414;28;20135;-56
2020/12/09 06:30:30;;;;;;;31.17;21.10;;;;;;;;;;5099423;28;20045;-57
2020/12/09 06:33:26;;;;;;;22.80;18.67;;;;;;;;;;5097855;28;20329;-56
2020/12/09 06:42:42;;;;;;;30.13;22.17;;;;;;;;;;4953855;28;20031;-57
2020/12/09 06:45:45;;;;;;;27.13;19.97;;;;;;;;;;4959453;28;20102;-56
2020/12/09 06:48:39;;;;;;;25.40;20.57;;;;;;;;;;5032704;28;20044;-57
2020/12/09 06:51:34;;;;;;;25.53;20.80;;;;;;;;;;5032535;28;20028;-56
2020/12/09 06:54:19;;;;;;;30.63;18.83;;;;;;;;;;5024278;28;20068;-57
2020/12/09 06:57:03;;;;;;;30.37;22.13;;;;;;;;;;5027105;28;20557;-56
2020/12/09 06:59:51;;;;;;;26.97;19.27;;;;;;;;;;5031628;28;20051;-57
2020/12/09 07:02:53;;;;;;;28.27;19.87;;;;;;;;;;5031808;28;20026;-56
2020/12/09 07:05:31;;;;;;;31.80;20.93;;;;;;;;;;5029256;28;20056;-56
2020/12/09 07:08:14;;;;;;;28.03;19.17;;;;;;;;;;5032412;28;20032;-57
2020/12/09 07:11:10;;;;;;;29.23;22.07;;;;;;;;;;5015955;28;20511;-57
2020/12/09 07:13:50;;;;;;;28.93;20.23;;;;;;;;;;5090946;28;20377;-56
2020/12/09 07:16:54;;;;;;;28.50;20.30;;;;;;;;;;5114485;28;20019;-56
2020/12/09 07:19:42;;;;;;;31.40;20.67;;;;;;;;;;5095382;28;20196;-55
2020/12/09 07:25:25;;;;;;;;;;;;;;;;;;;;;
2020/12/09 07:28:15;;;;;;;27.30;19.87;;;;;;;;;;5115247;28;20034;-57
2020/12/09 07:31:01;;;;;;;32.38;20.75;;;;;;;;;;5114365;28;20423;-57
2020/12/09 07:34:13;;;;;;;;;;;;;;;;;;;;;
2020/12/09 07:37:00;;;;;;;22.57;19.87;;;;;;;;;;5116274;28;20377;-56
2020/12/09 07:39:26;;;;;;;28.00;20.93;;;;;;;;;;5100070;28;20039;-55
2020/12/09 07:41:54;;;;;;;27.20;20.50;;;;;;;;;;5099957;28;20077;-56
2020/12/09 07:44:50;;;;;;;30.27;21.87;;;;;;;;;;5118847;28;20053;-57
2020/12/09 07:50:38;;;;;;;29.23;22.70;;;;;;;;;;5055364;28;20029;-55
2020/12/09 07:53:20;;;;;;;27.53;21.20;;;;;;;;;;5055802;28;20040;-56
2020/12/09 07:56:09;;;;;;;31.37;22.73;;;;;;;;;;5117241;28;20110;-55
2020/12/09 07:58:41;;;;;;;36.07;23.53;;;;;;;;;;5069870;28;20036;-57
2020/12/09 08:01:26;;;;;;;31.27;22.77;;;;;;;;;;5118123;28;20035;-56
2020/12/09 08:04:04;;;;;;;28.27;22.03;;;;;;;;;;5100208;28;20097;-56
2020/12/09 08:06:48;;;;;;;35.00;24.63;;;;;;;;;;5117684;28;20019;-56
2020/12/09 08:09:40;;;;;;;30.97;22.33;;;;;;;;;;5096496;28;20039;-55
2020/12/09 08:12:12;;;;;;;33.20;23.60;;;;;;;;;;5063318;28;20089;-57
2020/12/09 08:14:48;;;;;;;33.47;24.13;;;;;;;;;;5118708;28;20102;-56
2020/12/09 08:17:52;;;;;;;36.30;24.70;;;;;;;;;;5117491;28;20032;-57
2020/12/09 08:20:31;;;;;;;42.33;24.93;;;;;;;;;;5086158;28;20039;-57
2020/12/09 08:23:20;;;;;;;29.00;23.37;;;;;;;;;;5117206;28;20047;-57
2020/12/09 08:26:20;;;;;;;33.07;23.73;;;;;;;;;;5115674;28;20389;-56
2020/12/09 08:38:15;;;;;;;27.80;19.37;;;;;;;;;;5100612;28;20035;-56
2020/12/09 08:41:16;;;;;;;28.30;21.58;;;;;;;;;;5098310;28;20059;-53
2020/12/09 08:43:58;;;;;;;31.80;22.33;;;;;;;;;;5018455;28;20125;-57
2020/12/09 08:46:27;;;;;;;31.60;23.00;;;;;;;;;;5035115;28;20480;-57
2020/12/09 08:52:27;;;;;;;28.27;22.27;;;;;;;;;;5035138;28;20037;-57
2020/12/09 08:58:20;;;;;;;29.02;22.70;;;;;;;;;;5050437;28;20024;-53
2020/12/09 09:00:56;;;;;;;28.63;21.90;;;;;;;;;;5117887;28;20023;-57
2020/12/09 09:03:38;;;;;;;30.37;22.73;;;;;;;;;;5113885;28;20031;-57
2020/12/09 09:06:14;;;;;;;34.97;24.67;;;;;;;;;;5099532;28;20047;-56
2020/12/09 09:09:03;;;;;;;35.73;24.57;;;;;;;;;;5117843;28;20024;-54
2020/12/09 09:11:40;;;;;;;34.47;20.77;;;;;;;;;;5106273;28;20070;-57
2020/12/09 09:20:26;;;;;;;32.97;22.50;;;;;;;;;;5102431;28;20438;-55
2020/12/09 09:23:53;;;;;;;37.50;26.47;;;;;;;;;;5112363;28;20035;-55
2020/12/09 09:26:35;;;;;;;31.87;23.30;;;;;;;;;;5087856;28;20039;-56
2020/12/09 09:29:07;;;;;;;32.43;25.07;;;;;;;;;;5089016;28;20046;-56
2020/12/09 09:31:49;;;;;;;;;;;;;;;;;;;;;
2020/12/09 09:34:36;;;;;;;39.63;24.93;;;;;;;;;;5116334;28;20028;-56
2020/12/09 09:37:33;;;;;;;39.50;27.10;;;;;;;;;;5102043;28;20040;-55
2020/12/09 09:40:21;;;;;;;36.33;22.97;;;;;;;;;;5115525;28;20044;-56
2020/12/09 09:43:15;;;;;;;39.60;26.90;;;;;;;;;;5116192;28;20072;-55
2020/12/09 09:46:25;;;;;;;43.93;27.57;;;;;;;;;;5103318;28;20431;-60
2020/12/09 09:48:54;;;;;;;32.90;23.67;;;;;;;;;;5113594;28;20028;-57
2020/12/09 09:51:52;;;;;;;;;;;;;;;;;;;;;
2020/12/09 09:54:21;;;;;;;36.53;28.00;;;;;;;;;;5099556;28;20031;-56
2020/12/09 09:57:14;;;;;;;;;;;;;;;;;;;;;
2020/12/09 09:59:51;;;;;;;;;;;;;;;;;;;;;
2020/12/09 10:08:14;;;;;;;38.47;25.07;;;;;;;;;;5116277;28;20130;-55
2020/12/09 10:11:15;;;;;;;;;;;;;;;;;;;;;
2020/12/09 10:14:11;;;;;;;36.30;25.55;;;;;;;;;;5116096;28;20028;-57
2020/12/09 10:16:53;;;;;;;44.13;29.53;;;;;;;;;;5015702;28;20036;-56
2020/12/09 10:19:28;;;;;;;31.27;25.80;;;;;;;;;;5032977;28;20059;-55
2020/12/09 10:22:20;;;;;;;34.17;25.97;;;;;;;;;;5011107;28;20044;-56
2020/12/09 10:25:08;;;;;;;33.90;24.77;;;;;;;;;;5030774;28;20103;-56
2020/12/09 10:27:40;;;;;;;37.00;26.07;;;;;;;;;;5069288;28;20047;-57
2020/12/09 10:30:33;;;;;;;43.73;28.40;;;;;;;;;;5095647;28;20031;-56
2020/12/09 10:36:28;;;;;;;48.27;28.83;;;;;;;;;;5032087;28;20421;-56
2020/12/09 10:42:13;;;;;;;38.67;28.43;;;;;;;;;;5115182;28;20492;-57
2020/12/09 10:45:00;;;;;;;37.43;27.37;;;;;;;;;;5114974;28;20059;-56
2020/12/09 10:47:32;;;;;;;40.03;26.87;;;;;;;;;;5115905;28;20399;-56
2020/12/09 10:50:18;;;;;;;51.57;28.13;;;;;;;;;;5114822;28;20032;-55
2020/12/09 10:53:04;;;;;;;;;;;;;;;;;;;;;
2020/12/09 10:56:10;;;;;;;37.50;25.13;;;;;;;;;;5115536;28;20419;-56
2020/12/09 10:58:57;;;;;;;37.57;27.77;;;;;;;;;;5115214;28;20024;-56
2020/12/09 11:04:45;;;;;;;39.00;26.10;;;;;;;;;;5031493;28;20029;-56
2020/12/09 11:07:21;;;;;;;38.87;28.73;;;;;;;;;;5033151;28;20128;-57
2020/12/09 11:10:08;;;;;;;40.63;28.23;;;;;;;;;;5033255;28;20037;-53
2020/12/09 11:12:45;;;;;;;;;;;;;;;;;;;;;
2020/12/09 11:15:20;;;;;;;35.23;25.63;;;;;;;;;;5038090;28;20374;-55
2020/12/09 11:18:25;;;;;;;35.07;26.50;;;;;;;;;;5095500;28;20024;-57
2020/12/09 11:21:37;;;;;;;38.37;25.70;;;;;;;;;;5058123;28;20070;-56
2020/12/09 11:24:24;;;;;;;32.00;24.13;;;;;;;;;;4973333;28;20039;-56
2020/12/09 11:27:04;;;;;;;37.50;23.40;;;;;;;;;;4972742;28;20105;-57
2020/12/09 11:29:44;;;;;;;35.70;25.03;;;;;;;;;;4957343;28;20106;-56
2020/12/09 11:33:00;;;;;;;;;;;;;;;;;;;;;
2020/12/09 11:35:48;;;;;;;31.30;23.33;;;;;;;;;;5011430;28;20022;-57
2020/12/09 11:38:41;;;;;;;29.97;22.77;;;;;;;;;;4995058;28;20030;-56
2020/12/09 11:41:11;;;;;;;33.23;24.43;;;;;;;;;;4995282;28;20604;-57
2020/12/09 11:43:56;;;;;;;;;;;;;;;;;;;;;
2020/12/09 11:46:38;;;;;;;34.67;24.57;;;;;;;;;;5059699;28;20270;-55
2020/12/09 11:49:45;;;;;;;29.83;22.80;;;;;;;;;;5072173;28;20052;-56
2020/12/09 11:55:40;;;;;;;31.87;25.87;;;;;;;;;;5085087;28;20397;-56
2020/12/09 11:58:31;;;;;;;40.17;27.80;;;;;;;;;;5092269;28;20358;-56
2020/12/09 12:07:19;;;;;;;40.63;25.67;;;;;;;;;;5110819;28;20054;-56
2020/12/09 12:10:07;;;;;;;42.03;26.53;;;;;;;;;;5113912;28;20035;-56
2020/12/09 12:12:36;;;;;;;37.53;28.53;;;;;;;;;;5114142;28;20016;-55
2020/12/09 12:15:47;;;;;;;;;;;;;;;;;;;;;
2020/12/09 12:24:22;;;;;;;51.63;28.33;;;;;;;;;;5041729;28;20493;-56
2020/12/09 12:29:46;;;;;;;43.03;30.17;;;;;;;;;;5055024;28;20084;-55
2020/12/09 12:32:30;;;;;;;53.67;30.37;;;;;;;;;;5055349;28;20497;-56
2020/12/09 12:35:26;;;;;;;44.27;29.03;;;;;;;;;;5054789;28;20033;-55
2020/12/09 12:38:07;;;;;;;52.07;28.20;;;;;;;;;;5031888;28;20037;-55
2020/12/09 12:40:54;;;;;;;49.40;26.35;;;;;;;;;;5055308;28;20351;-56
2020/12/09 12:43:41;;;;;;;38.30;27.73;;;;;;;;;;5034643;28;20029;-55
2020/12/09 12:46:47;;;;;;;28.57;19.03;;;;;;;;;;5067609;28;20154;-56
2020/12/09 12:49:32;;;;;;;39.50;22.57;;;;;;;;;;5064081;28;20102;-55
2020/12/09 12:52:36;;;;;;;44.57;23.63;;;;;;;;;;5095279;28;20075;-56
2020/12/09 12:55:19;;;;;;;38.13;25.17;;;;;;;;;;5086435;28;20039;-57
2020/12/09 12:58:03;;;;;;;37.77;25.57;;;;;;;;;;5078354;28;20040;-56
2020/12/09 13:01:17;;;;;;;31.53;22.93;;;;;;;;;;5094541;28;20039;-58
2020/12/09 13:07:24;;;;;;;35.93;24.40;;;;;;;;;;4984839;28;20107;-56
2020/12/09 13:09:49;;;;;;;41.90;24.47;;;;;;;;;;5089471;28;20054;-58
2020/12/09 13:19:29;;;;;;;31.17;21.03;;;;;;;;;;5034206;28;20089;-57
2020/12/09 13:22:01;;;;;;;35.10;21.83;;;;;;;;;;4971418;28;20034;-58
2020/12/09 13:24:54;;;;;;;33.40;22.57;;;;;;;;;;5028388;28;20034;-55
2020/12/09 13:27:35;;;;;;;38.67;21.87;;;;;;;;;;5033494;28;20021;-57
2020/12/09 13:30:31;;;;;;;39.73;25.97;;;;;;;;;;5016579;28;20571;-57
2020/12/09 13:33:12;;;;;;;30.77;22.07;;;;;;;;;;5033848;28;20096;-58
2020/12/09 13:36:03;;;;;;;31.03;23.23;;;;;;;;;;5034791;28;20046;-57
2020/12/09 13:38:36;;;;;;;40.90;25.95;;;;;;;;;;5115865;28;20476;-58
2020/12/09 13:41:18;;;;;;;;;;;;;;;;;;;;;
2020/12/09 13:46:48;;;;;;;32.07;21.43;;;;;;;;;;5076998;28;20036;-56
2020/12/09 13:49:55;;;;;;;30.80;22.33;;;;;;;;;;5116732;28;20445;-55
2020/12/09 13:52:31;;;;;;;31.57;22.50;;;;;;;;;;5110557;28;20170;-55
2020/12/09 13:55:15;;;;;;;41.17;25.63;;;;;;;;;;5116688;28;20111;-54
2020/12/09 13:58:04;;;;;;;37.23;23.27;;;;;;;;;;5098615;28;20368;-58
2020/12/09 14:00:56;;;;;;;36.33;21.87;;;;;;;;;;5116038;28;20032;-57
2020/12/09 14:03:30;;;;;;;31.03;19.03;;;;;;;;;;5114892;28;20059;-56
2020/12/09 14:06:21;;;;;;;35.83;22.67;;;;;;;;;;5116206;28;20027;-58
2020/12/09 14:11:56;;;;;;;31.57;21.37;;;;;;;;;;5112233;28;19911;-57
2020/12/09 14:14:43;;;;;;;32.70;21.47;;;;;;;;;;5097074;28;20445;-58
2020/12/09 14:17:21;;;;;;;32.80;23.43;;;;;;;;;;5115911;28;20062;-58
2020/12/09 14:19:52;;;;;;;42.87;25.07;;;;;;;;;;5093753;28;20039;-58
2020/12/09 14:22:43;;;;;;;32.23;21.50;;;;;;;;;;5112389;28;20059;-58
2020/12/09 14:25:12;;;;;;;;;;;;;;;;;;5095697;28;20031;-58
2020/12/09 14:27:53;;;;;;;36.50;23.37;;;;;;;;;;5115112;28;19903;-58
2020/12/09 14:30:40;;;;;;;26.08;20.65;;;;;;;;;;5115566;28;20028;-58
2020/12/09 14:33:12;;;;;;;28.57;22.03;;;;;;;;;;5113549;28;20038;-58
2020/12/09 14:36:01;;;;;;;32.07;20.20;;;;;;;;;;5097090;28;20023;-58
2020/12/09 14:38:43;;;;;;;39.83;24.03;;;;;;;;;;5090842;28;20361;-56
2020/12/09 14:41:26;;;;;;;29.00;21.17;;;;;;;;;;5115143;28;20032;-58
2020/12/09 14:44:08;;;;;;;29.30;21.90;;;;;;;;;;5092047;28;20088;-58
2020/12/09 14:47:01;;;;;;;31.90;21.70;;;;;;;;;;5096093;28;20031;-58
2020/12/09 14:49:43;;;;;;;30.43;21.73;;;;;;;;;;5112278;28;20063;-57
2020/12/09 14:52:14;;;;;;;34.00;23.03;;;;;;;;;;5115273;28;20038;-54
2020/12/09 14:55:10;;;;;;;29.77;22.70;;;;;;;;;;5112033;28;20036;-58
2020/12/09 14:57:39;;;;;;;28.00;21.43;;;;;;;;;;5114777;28;20481;-56
2020/12/09 15:00:34;;;;;;;32.80;21.83;;;;;;;;;;5115168;28;20031;-58
2020/12/09 15:06:27;;;;;;;28.37;21.17;;;;;;;;;;5106698;28;20035;-58
2020/12/09 15:12:09;;;;;;;29.10;20.87;;;;;;;;;;5115196;28;20135;-57
2020/12/09 15:14:47;;;;;;;30.47;22.17;;;;;;;;;;5072006;28;20046;-55
2020/12/09 15:17:42;;;;;;;31.27;20.23;;;;;;;;;;5056338;28;20071;-55
2020/12/09 15:20:21;;;;;;;32.47;20.40;;;;;;;;;;5072618;28;20114;-55
2020/12/09 15:26:04;;;;;;;24.97;18.73;;;;;;;;;;5072560;28;20028;-58
2020/12/09 15:28:52;;;;;;;29.53;20.63;;;;;;;;;;5059600;28;20041;-58
2020/12/09 15:31:28;;;;;;;23.67;19.13;;;;;;;;;;5007243;28;20064;-58
2020/12/09 15:34:18;;;;;;;31.40;18.30;;;;;;;;;;5055794;28;20096;-56
2020/12/09 15:36:57;;;;;;;29.10;18.47;;;;;;;;;;5071417;28;20436;-58
2020/12/09 15:39:31;;;;;;;27.40;19.53;;;;;;;;;;5055940;28;20123;-57
2020/12/09 15:42:23;;;;;;;24.97;19.23;;;;;;;;;;5072058;28;20037;-58
2020/12/09 15:45:03;;;;;;;21.43;17.80;;;;;;;;;;5080100;28;20031;-59
2020/12/09 15:47:53;;;;;;;;;;;;;;;;;;;;;
2020/12/09 15:50:27;;;;;;;24.37;17.97;;;;;;;;;;5113915;28;20118;-55
2020/12/09 15:53:07;;;;;;;22.47;18.47;;;;;;;;;;5119656;28;20032;-55
2020/12/09 15:59:02;;;;;;;;;;;;;;;;;;;;;
2020/12/09 16:01:38;;;;;;;29.47;19.27;;;;;;;;;;5117856;28;20036;-58
2020/12/09 16:04:34;;;;;;;30.53;18.83;;;;;;;;;;5098255;28;20469;-58
2020/12/09 16:07:40;;;;;;;29.60;19.80;;;;;;;;;;5100310;28;20027;-55
2020/12/09 16:10:31;;;;;;;25.73;17.90;;;;;;;;;;5075610;28;20496;-53
2020/12/09 16:13:06;;;;;;;24.92;17.83;;;;;;;;;;5099099;28;20035;-52
2020/12/09 16:19:13;;;;;;;25.10;18.03;;;;;;;;;;5118236;28;20478;-55
2020/12/09 16:25:06;;;;;;;23.47;16.13;;;;;;;;;;5117383;28;20385;-54
2020/12/09 16:28:01;;;;;;;25.57;18.93;;;;;;;;;;5086758;28;20034;-55
2020/12/09 16:31:08;;;;;;;23.50;16.10;;;;;;;;;;5118107;28;20484;-56
2020/12/09 16:33:51;;;;;;;22.43;18.03;;;;;;;;;;5117945;28;20058;-56
2020/12/09 16:39:33;;;;;;;18.70;15.07;;;;;;;;;;5117598;28;20035;-57
2020/12/09 16:48:27;;;;;;;17.03;13.53;;;;;;;;;;5034133;28;20032;-57
2020/12/09 16:51:00;;;;;;;21.00;15.33;;;;;;;;;;5072151;28;20033;-56
2020/12/09 16:56:26;;;;;;;21.23;14.60;;;;;;;;;;5109354;28;20028;-58
2020/12/09 16:58:58;;;;;;;20.43;13.93;;;;;;;;;;5115229;28;20035;-55
2020/12/09 17:01:36;;;;;;;20.00;14.20;;;;;;;;;;5117251;28;20055;-56
2020/12/09 17:04:28;;;;;;;20.43;15.13;;;;;;;;;;5096218;28;20032;-57
2020/12/09 17:07:24;;;;;;;25.63;13.80;;;;;;;;;;5080255;28;20032;-57
2020/12/09 17:10:13;;;;;;;19.90;15.07;;;;;;;;;;5059745;28;20390;-56
2020/12/09 17:13:12;;;;;;;20.67;13.70;;;;;;;;;;5074790;28;20401;-57
2020/12/09 17:16:04;;;;;;;17.13;12.53;;;;;;;;;;5014417;28;20120;-57
2020/12/09 17:18:52;;;;;;;17.17;13.47;;;;;;;;;;5006680;28;20037;-53
2020/12/09 17:22:01;;;;;;;;;;;;;;;;;;;;;
2020/12/09 17:24:59;;;;;;;18.27;13.93;;;;;;;;;;5014775;28;20375;-54
2020/12/09 17:27:39;;;;;;;19.53;14.57;;;;;;;;;;4997725;28;20030;-58
2020/12/09 17:30:26;;;;;;;20.50;14.90;;;;;;;;;;4981993;28;20030;-58
2020/12/09 17:33:13;;;;;;;22.87;16.33;;;;;;;;;;5014756;28;20046;-58
2020/12/09 17:35:53;;;;;;;21.13;15.60;;;;;;;;;;4988087;28;20038;-55
2020/12/09 17:44:33;;;;;;;20.90;15.57;;;;;;;;;;5073611;28;20036;-57
2020/12/09 17:47:28;;;;;;;19.30;15.20;;;;;;;;;;5060870;28;20334;-58
2020/12/09 17:50:04;;;;;;;23.73;16.30;;;;;;;;;;5089550;28;20047;-58
2020/12/09 17:52:51;;;;;;;21.07;14.00;;;;;;;;;;5096444;28;20020;-58
2020/12/09 17:55:29;;;;;;;19.10;15.00;;;;;;;;;;5073241;28;20039;-58
2020/12/09 17:58:04;;;;;;;17.97;14.20;;;;;;;;;;5077809;28;20031;-54
2020/12/09 18:00:49;;;;;;;14.93;11.77;;;;;;;;;;5096834;28;20099;-56
2020/12/09 18:06:34;;;;;;;;;;;;;;;;;;;;;
2020/12/09 18:09:04;;;;;;;21.97;15.97;;;;;;;;;;5094978;28;20420;-55
2020/12/09 18:15:29;;;;;;;20.92;14.02;;;;;;;;;;5051637;28;20052;-57
2020/12/09 18:18:24;;;;;;;21.17;15.50;;;;;;;;;;5052764;28;20056;-56
2020/12/09 18:21:11;;;;;;;21.47;14.23;;;;;;;;;;5049259;28;20033;-55
2020/12/09 18:23:59;;;;;;;16.53;13.30;;;;;;;;;;5072115;28;20170;-56
2020/12/09 18:26:31;;;;;;;22.23;13.67;;;;;;;;;;5073178;28;20435;-56
2020/12/09 18:32:27;;;;;;;19.30;15.67;;;;;;;;;;5059163;28;20045;-56
2020/12/09 18:38:06;;;;;;;17.80;14.27;;;;;;;;;;5107010;28;20031;-56
2020/12/09 18:40:41;;;;;;;23.67;15.90;;;;;;;;;;5082781;28;20047;-57
2020/12/09 18:43:27;;;;;;;22.23;17.13;;;;;;;;;;5096162;28;20031;-57
2020/12/09 18:46:09;;;;;;;18.07;13.80;;;;;;;;;;5115948;28;20028;-56
2020/12/09 18:48:45;;;;;;;19.50;16.13;;;;;;;;;;5096795;28;20028;-56
2020/12/09 18:51:44;;;;;;;20.53;13.87;;;;;;;;;;5094053;28;20108;-56
2020/12/09 18:57:48;;;;;;;18.37;13.50;;;;;;;;;;5111685;28;20063;-54
2020/12/09 19:00:30;;;;;;;16.13;12.73;;;;;;;;;;5096259;28;20122;-56
2020/12/09 19:03:25;;;;;;;16.57;12.90;;;;;;;;;;5097079;28;20087;-56
2020/12/09 19:06:03;;;;;;;22.60;13.60;;;;;;;;;;5097306;28;20080;-56
2020/12/09 19:12:00;;;;;;;18.53;13.80;;;;;;;;;;5068911;28;20095;-56
2020/12/09 19:15:14;;;;;;;;;;;;;;;;;;;;;
2020/12/09 19:18:02;;;;;;;13.00;11.23;;;;;;;;;;5071602;28;20028;-54
2020/12/09 19:30:17;;;;;;;15.07;12.13;;;;;;;;;;4992281;28;20062;-54
2020/12/09 19:33:21;;;;;;;15.83;11.80;;;;;;;;;;5032145;28;20029;-56
2020/12/09 19:35:56;;;;;;;16.87;13.17;;;;;;;;;;5032662;28;20032;-57
2020/12/09 19:38:45;;;;;;;19.13;14.50;;;;;;;;;;5065354;28;20124;-57
2020/12/09 19:41:12;;;;;;;18.10;14.00;;;;;;;;;;5065373;28;20043;-57
2020/12/09 19:43:38;;;;;;;19.43;13.87;;;;;;;;;;5093762;28;20071;-56
2020/12/09 19:46:34;;;;;;;19.07;13.63;;;;;;;;;;5076848;28;20047;-57
2020/12/09 19:49:22;;;;;;;;;;;;;;;;;;;;;
2020/12/09 19:55:09;;;;;;;13.63;12.10;;;;;;;;;;5085884;28;20036;-55
2020/12/09 19:57:57;;;;;;;18.83;13.10;;;;;;;;;;5094534;28;20038;-57
2020/12/09 20:00:32;;;;;;;15.10;12.30;;;;;;;;;;5094168;28;20480;-55
2020/12/09 20:03:14;;;;;;;18.87;14.87;;;;;;;;;;5077657;28;20021;-55
2020/12/09 20:05:47;;;;;;;15.33;11.60;;;;;;;;;;5095003;28;20129;-57
2020/12/09 20:08:45;;;;;;;17.27;13.53;;;;;;;;;;5094400;28;20032;-55
2020/12/09 20:14:22;;;;;;;21.07;13.63;;;;;;;;;;5103682;28;20393;-57
2020/12/09 20:19:53;;;;;;;16.50;11.83;;;;;;;;;;5116667;28;20385;-55
2020/12/09 20:22:42;;;;;;;16.93;11.20;;;;;;;;;;5114243;28;20016;-51
2020/12/09 20:28:40;;;;;;;16.37;11.63;;;;;;;;;;5104941;28;20040;-55
2020/12/09 20:31:34;;;;;;;15.40;11.82;;;;;;;;;;5113677;28;20032;-57
2020/12/09 20:37:04;;;;;;;15.37;11.10;;;;;;;;;;5106191;28;20084;-57
2020/12/09 20:42:58;;;;;;;19.10;12.67;;;;;;;;;;5104313;28;20461;-56
2020/12/09 20:46:04;;;;;;;;;;;;;;;;;;;;;
2020/12/09 20:48:45;;;;;;;16.07;11.77;;;;;;;;;;5055124;28;20036;-57
2020/12/09 20:51:27;;;;;;;18.03;11.90;;;;;;;;;;5049103;28;20503;-56
2020/12/09 20:54:03;;;;;;;19.33;14.80;;;;;;;;;;5093192;28;20522;-55
2020/12/09 20:56:39;;;;;;;17.70;13.70;;;;;;;;;;5117323;28;20377;-55
2020/12/09 20:59:25;;;;;;;;;;;;;;;;;;;;;